GVSVGVAC

Guest
Details From GVSV - Sao Pedro
To GVAC - Sal Amilcar Cabral Intl
Flight Number -
Tags generated
Created
Modified
Stats Distance 149 nm / 276 km
Max Altitude 15,600 ft / 4,755 m
Waypoints 4
Social Downloads 8
Likes 0
Share

Download

Looking for another format? Having issues loading an existing format? Contact us
Advertisement - Login to hide

Notes

Basic altitude profile: - Ascent Rate: 1800ft/min - Ascent Speed: 250kts - Cruise Altitude: 15000ft - Cruise Speed: 350kts - Descent Rate: 250ft/min - Descent Speed: 250kts Options: - Use NATs: yes - Use PACOTS: yes - Use low airways: yes - Use high airways: yes

Route

GVSV VOTOL R976 CVS GVAC

ID Type Via Altitude (ft/m) Position (lat/lon) Dist (leg/tot) Name
O GVSV APT - 0 / 0 16.83370 / -25.05466 - / 0 nm Sao Pedro
VOTOL FIX - 15,600 / 4,755 17.51000 / -24.03472 71 / 71 nm
CVS VOR R976 (AWY-LO) 8,500 / 2,591 16.73677 / -22.95105 77 / 148 nm SAL VOR-DME
O GVAC APT - 0 / 0 16.73821 / -22.95050 0 / 148 nm Sal Amilcar Cabral Intl

Altitude Profile

Advertisement - Login to hide

GVSV

Details ICAO GVSV (VXE)
Name Sao Pedro
Region Cape Verde
Timezone Atlantic/Cape_Verde (UTC-1.0)
Stats Elevation 65 ft / 20 m (AMSL)
Location 16.833700° -25.054600°
Runways 1
Magnetic Variation 9.707° W

METAR

GVSV 131600Z 05023KT 9999 FEW017 26/18 Q1013 NOSIG

Decode

TAF

TAF GVSV 131100Z 1312/1418 05025KT 9999 FEW016

Decode

Departure Runways

ID Width Length Bearing (true/mag) Surface Threshold Overrun Markings Lighting
07 151 ft / 46 m 6,565 ft / 2,001 m 53.46° / 63.17° ASPHALT 486 ft / 148 m 0 ft / 0 m PREC-APP CENTERLINE EDGE THRESHOLD
25 151 ft / 46 m 6,565 ft / 2,001 m 233.46° / 243.17° ASPHALT 0 ft / 0 m 190 ft / 58 m PREC-APP CENTERLINE EDGE THRESHOLD

GVAC

Details ICAO GVAC (SID)
Name Espargos-Amilcar Cabral Intl
Region Cape Verde
Timezone Atlantic/Cape_Verde (UTC-1.0)
Stats Elevation 184 ft / 56 m (AMSL)
Location 16.737600° -22.950000°
Runways 1
Magnetic Variation 8.841° W

METAR

GVAC 131600Z 05018KT 9999 FEW014 26/18 Q1014 NOSIG

Decode

TAF

TAF GVAC 131100Z 1312/1418 04016KT 9999 FEW013

Decode

Destination Runways

ID Width Length Bearing (true/mag) Surface Threshold Overrun Markings Lighting
01 148 ft / 45 m 10,781 ft / 3,286 m 359.61° / 8.45° ASPHALT 879 ft / 268 m 0 ft / 0 m PREC-APP CENTERLINE EDGE THRESHOLD MALSR TDZ
19 148 ft / 45 m 10,781 ft / 3,286 m 179.61° / 188.45° ASPHALT 0 ft / 0 m 0 ft / 0 m PREC-APP CENTERLINE EDGE THRESHOLD MALSR TDZ

Approach Navaids

Runway Type Ident Frequency Range Bearing (true/mag) Slope Elevation
01 GS SL 109.90 MHz 10 nm / 19 km 359.64° / 8.48 ° 3.00° 184 ft / 56 m (AMSL)
01 LOC-ILS SL 109.90 MHz 18 nm / 33 km 359.58° / 8.42 ° - 177 ft / 54 m (AMSL)

Popular Alternatives